Time;durP1;ratioP1;P1;durP2;ratioP2;P2;SDS_P1;SDS_P2;PMS_P1;PMS_P2;Temp;Humidity;BMP_temperature;BMP_pressure;BME280_temperature;BME280_humidity;BME280_pressure;Samples;Min_cycle;Max_cycle;Signal;HPM_P1;HPM_P2
2024/03/27 00:00:07;;;;;;;6.00;3.63;;;;;;;;;;5030661;28;20057;-64
2024/03/27 00:02:34;;;;;;;6.72;3.78;;;;;;;;;;5030852;28;20495;-64
2024/03/27 00:05:00;;;;;;;5.85;3.33;;;;;;;;;;5031187;28;20037;-64
2024/03/27 00:07:26;;;;;;;9.43;3.72;;;;;;;;;;5029970;28;20038;-64
2024/03/27 00:09:51;;;;;;;7.03;4.47;;;;;;;;;;5034621;28;20038;-64
2024/03/27 00:12:20;;;;;;;10.85;4.60;;;;;;;;;;5034319;28;20037;-66
2024/03/27 00:14:46;;;;;;;7.88;4.15;;;;;;;;;;5034310;28;20052;-64
2024/03/27 00:17:11;;;;;;;5.28;3.35;;;;;;;;;;5066191;28;20034;-64
2024/03/27 00:19:37;;;;;;;9.23;3.35;;;;;;;;;;5032854;28;20475;-63
2024/03/27 00:22:04;;;;;;;8.18;3.45;;;;;;;;;;5032996;28;20037;-65
2024/03/27 00:24:31;;;;;;;7.10;3.38;;;;;;;;;;5032830;28;20041;-64
2024/03/27 00:26:57;;;;;;;5.40;3.22;;;;;;;;;;5033804;28;20119;-63
2024/03/27 00:29:23;;;;;;;6.10;3.50;;;;;;;;;;5032937;28;20195;-64
2024/03/27 00:31:49;;;;;;;5.65;2.95;;;;;;;;;;5032498;28;20039;-64
2024/03/27 00:34:15;;;;;;;2.78;2.55;;;;;;;;;;5034091;28;20107;-65
2024/03/27 00:36:41;;;;;;;4.18;2.70;;;;;;;;;;5032462;28;20108;-64
2024/03/27 00:39:06;;;;;;;5.28;3.30;;;;;;;;;;5033687;28;20465;-64
2024/03/27 00:41:32;;;;;;;4.53;2.55;;;;;;;;;;5034302;28;20044;-64
2024/03/27 00:43:58;;;;;;;4.40;2.47;;;;;;;;;;5032397;28;20040;-64
2024/03/27 00:46:24;;;;;;;6.82;3.45;;;;;;;;;;5033687;28;20610;-65
2024/03/27 00:48:50;;;;;;;6.70;2.80;;;;;;;;;;5032175;28;20060;-64
2024/03/27 00:51:16;;;;;;;6.88;2.70;;;;;;;;;;5033632;28;20507;-63
2024/03/27 00:53:43;;;;;;;6.25;3.25;;;;;;;;;;5033147;28;20053;-64
2024/03/27 00:56:08;;;;;;;5.60;2.28;;;;;;;;;;5033531;28;20037;-64
2024/03/27 00:58:34;;;;;;;5.07;3.08;;;;;;;;;;5033122;28;20045;-64
2024/03/27 01:01:00;;;;;;;6.82;2.97;;;;;;;;;;5033747;28;20538;-64
2024/03/27 01:03:25;;;;;;;6.40;3.17;;;;;;;;;;5033329;28;20025;-64
2024/03/27 01:05:51;;;;;;;5.07;2.90;;;;;;;;;;5033619;28;20483;-66
2024/03/27 01:08:17;;;;;;;5.30;2.80;;;;;;;;;;5033189;28;20079;-65
2024/03/27 01:10:44;;;;;;;6.28;3.13;;;;;;;;;;5033265;28;20034;-65
2024/03/27 01:13:11;;;;;;;6.13;3.28;;;;;;;;;;5031643;28;20034;-65
2024/03/27 01:15:37;;;;;;;6.47;3.10;;;;;;;;;;5015343;28;20562;-65
2024/03/27 01:18:03;;;;;;;4.70;2.88;;;;;;;;;;5033059;28;20120;-63
2024/03/27 01:20:29;;;;;;;4.13;3.15;;;;;;;;;;5031346;28;20116;-63
2024/03/27 01:22:55;;;;;;;6.20;3.33;;;;;;;;;;5033188;28;20100;-63
2024/03/27 01:25:21;;;;;;;5.75;3.55;;;;;;;;;;5015236;28;20448;-65
2024/03/27 01:27:47;;;;;;;6.78;3.90;;;;;;;;;;5031882;28;20033;-64
2024/03/27 01:30:13;;;;;;;7.35;3.30;;;;;;;;;;5033059;28;20033;-64
2024/03/27 01:32:38;;;;;;;8.38;3.50;;;;;;;;;;5031823;28;20116;-65
2024/03/27 01:35:04;;;;;;;5.75;3.95;;;;;;;;;;5031384;28;20056;-62
2024/03/27 01:37:30;;;;;;;5.78;3.25;;;;;;;;;;5032746;28;20040;-65
2024/03/27 01:39:56;;;;;;;4.82;2.75;;;;;;;;;;5032704;28;20043;-64
2024/03/27 01:42:21;;;;;;;5.57;3.17;;;;;;;;;;5032881;28;20118;-65
2024/03/27 01:44:47;;;;;;;7.05;3.28;;;;;;;;;;5032709;28;20064;-64
2024/03/27 01:47:13;;;;;;;5.55;3.40;;;;;;;;;;5014794;28;20037;-66
2024/03/27 01:49:42;;;;;;;4.72;3.03;;;;;;;;;;5014660;28;20042;-64
2024/03/27 01:52:09;;;;;;;6.93;3.15;;;;;;;;;;5032718;28;20091;-63
2024/03/27 01:54:35;;;;;;;7.25;3.47;;;;;;;;;;5030956;28;20041;-64
2024/03/27 01:57:02;;;;;;;4.68;3.25;;;;;;;;;;5031057;28;20036;-65
2024/03/27 01:59:27;;;;;;;6.15;2.90;;;;;;;;;;5030842;28;20057;-63
2024/03/27 02:01:54;;;;;;;4.90;3.10;;;;;;;;;;5032792;28;20040;-65
2024/03/27 02:04:20;;;;;;;6.05;3.28;;;;;;;;;;5030898;28;20099;-64
2024/03/27 02:06:46;;;;;;;6.53;3.13;;;;;;;;;;5030999;28;20037;-66
2024/03/27 02:09:12;;;;;;;7.93;3.63;;;;;;;;;;5032360;28;20095;-64
2024/03/27 02:11:39;;;;;;;6.18;3.28;;;;;;;;;;5032051;28;20552;-65
2024/03/27 02:14:04;;;;;;;7.63;4.10;;;;;;;;;;5030767;28;20140;-63
2024/03/27 02:16:30;;;;;;;7.22;3.65;;;;;;;;;;5032012;28;20128;-64
2024/03/27 02:18:56;;;;;;;7.22;4.30;;;;;;;;;;5030678;28;20121;-65
2024/03/27 02:21:21;;;;;;;5.93;3.80;;;;;;;;;;5030880;28;20742;-65
2024/03/27 02:23:50;;;;;;;5.75;3.13;;;;;;;;;;5030673;28;20507;-65
2024/03/27 02:26:16;;;;;;;6.20;3.90;;;;;;;;;;5030627;28;20462;-65
2024/03/27 02:28:45;;;;;;;9.13;4.00;;;;;;;;;;5030840;28;20064;-63
2024/03/27 02:31:11;;;;;;;9.07;3.90;;;;;;;;;;5031921;28;20030;-64
2024/03/27 02:33:36;;;;;;;10.27;4.50;;;;;;;;;;5031871;28;20076;-62
2024/03/27 02:36:02;;;;;;;7.25;3.78;;;;;;;;;;5031943;28;20029;-65
2024/03/27 02:38:28;;;;;;;4.63;3.50;;;;;;;;;;5032000;28;20124;-64
2024/03/27 02:40:54;;;;;;;4.68;3.35;;;;;;;;;;5030703;28;20553;-64
2024/03/27 02:43:19;;;;;;;7.75;3.55;;;;;;;;;;5030247;28;20037;-64
2024/03/27 02:45:46;;;;;;;7.50;3.75;;;;;;;;;;5030610;28;20406;-65
2024/03/27 02:48:12;;;;;;;8.70;4.03;;;;;;;;;;5030525;28;20116;-65
2024/03/27 02:50:38;;;;;;;8.32;4.10;;;;;;;;;;5013914;28;20091;-64
2024/03/27 02:53:03;;;;;;;5.55;3.75;;;;;;;;;;5030477;28;20426;-64
2024/03/27 02:55:29;;;;;;;5.72;3.85;;;;;;;;;;5031959;28;20045;-63
2024/03/27 02:57:54;;;;;;;5.22;3.22;;;;;;;;;;5030294;28;20039;-66
2024/03/27 03:00:20;;;;;;;6.00;3.33;;;;;;;;;;5013994;28;20050;-65
2024/03/27 03:02:46;;;;;;;7.15;3.65;;;;;;;;;;5031188;28;20033;-66
2024/03/27 03:05:11;;;;;;;8.95;3.60;;;;;;;;;;5030272;28;20030;-66
2024/03/27 03:07:37;;;;;;;7.38;3.58;;;;;;;;;;5013420;28;20406;-65
2024/03/27 03:10:03;;;;;;;6.35;3.65;;;;;;;;;;5030253;28;20037;-65
2024/03/27 03:12:29;;;;;;;7.55;3.75;;;;;;;;;;5030161;28;20403;-66
2024/03/27 03:14:55;;;;;;;6.70;3.42;;;;;;;;;;5029808;28;20533;-66
2024/03/27 03:17:21;;;;;;;5.75;2.88;;;;;;;;;;5029944;28;20531;-65
2024/03/27 03:19:46;;;;;;;6.50;3.60;;;;;;;;;;5031452;28;20033;-66
2024/03/27 03:22:12;;;;;;;6.95;3.90;;;;;;;;;;5031003;28;20028;-65
2024/03/27 03:24:38;;;;;;;7.30;3.45;;;;;;;;;;5031406;28;20048;-66
2024/03/27 03:27:03;;;;;;;5.85;3.67;;;;;;;;;;5030036;28;20033;-66
2024/03/27 03:29:29;;;;;;;7.43;3.38;;;;;;;;;;5029859;28;20407;-66
2024/03/27 03:31:55;;;;;;;4.22;2.60;;;;;;;;;;5029896;28;20029;-66
2024/03/27 03:34:21;;;;;;;5.53;2.60;;;;;;;;;;5013269;28;20081;-63
2024/03/27 03:36:47;;;;;;;5.25;2.90;;;;;;;;;;5029853;28;20072;-64
2024/03/27 03:39:14;;;;;;;8.18;3.50;;;;;;;;;;5030980;28;20041;-64
2024/03/27 03:41:39;;;;;;;4.60;2.80;;;;;;;;;;5030728;28;20129;-64
2024/03/27 03:44:05;;;;;;;6.40;3.15;;;;;;;;;;5032460;28;20473;-64
2024/03/27 03:46:30;;;;;;;7.25;3.60;;;;;;;;;;5033825;28;20120;-64
2024/03/27 03:48:56;;;;;;;5.55;3.45;;;;;;;;;;5032960;28;20041;-64
2024/03/27 03:51:22;;;;;;;10.65;3.28;;;;;;;;;;5034582;28;20033;-66
2024/03/27 03:53:47;;;;;;;8.07;3.25;;;;;;;;;;5032975;28;20084;-64
2024/03/27 03:56:13;;;;;;;4.70;2.58;;;;;;;;;;5033390;28;20045;-65
2024/03/27 03:58:39;;;;;;;6.75;3.10;;;;;;;;;;5034046;28;20475;-65
2024/03/27 04:01:06;;;;;;;5.55;3.22;;;;;;;;;;5034953;28;20255;-64
2024/03/27 04:03:33;;;;;;;7.25;3.00;;;;;;;;;;5034125;28;20056;-64
2024/03/27 04:05:59;;;;;;;4.75;2.80;;;;;;;;;;5033118;28;20123;-66
2024/03/27 04:08:24;;;;;;;6.50;2.83;;;;;;;;;;5016341;28;20035;-66
2024/03/27 04:10:50;;;;;;;5.20;3.28;;;;;;;;;;5034756;28;20297;-65
2024/03/27 04:13:15;;;;;;;4.80;3.08;;;;;;;;;;5032761;28;20033;-65
2024/03/27 04:15:41;;;;;;;4.47;3.05;;;;;;;;;;5034199;28;20574;-66
2024/03/27 04:18:07;;;;;;;5.57;3.33;;;;;;;;;;5034308;28;20443;-63
2024/03/27 04:20:33;;;;;;;6.88;3.45;;;;;;;;;;5033866;28;20099;-64
2024/03/27 04:22:58;;;;;;;8.38;3.90;;;;;;;;;;5034000;28;20044;-67
2024/03/27 04:25:24;;;;;;;7.80;3.90;;;;;;;;;;5034172;28;20037;-66
2024/03/27 04:27:50;;;;;;;8.50;4.28;;;;;;;;;;5034156;28;20458;-65
2024/03/27 04:30:16;;;;;;;9.35;4.45;;;;;;;;;;5032618;28;20045;-66
2024/03/27 04:32:42;;;;;;;7.30;4.97;;;;;;;;;;5033856;28;20068;-65
2024/03/27 04:35:08;;;;;;;6.60;4.90;;;;;;;;;;5032134;28;20050;-65
2024/03/27 04:37:34;;;;;;;9.88;5.10;;;;;;;;;;5034024;28;20029;-66
2024/03/27 04:40:09;;;;;;;9.25;5.50;;;;;;;;;;5016003;28;20048;-65
2024/03/27 04:42:36;;;;;;;10.30;5.50;;;;;;;;;;5034069;28;20039;-66
2024/03/27 04:45:02;;;;;;;7.35;4.20;;;;;;;;;;5033757;28;20040;-66
2024/03/27 04:47:28;;;;;;;9.25;5.10;;;;;;;;;;5032348;28;20033;-65
2024/03/27 04:49:54;;;;;;;13.73;5.40;;;;;;;;;;4999417;28;20036;-66
2024/03/27 04:52:19;;;;;;;8.27;4.68;;;;;;;;;;5033717;28;20062;-66
2024/03/27 04:54:46;;;;;;;7.22;3.97;;;;;;;;;;5032371;28;20060;-63
2024/03/27 04:57:12;;;;;;;9.10;4.38;;;;;;;;;;5032519;28;20041;-65
2024/03/27 04:59:38;;;;;;;5.55;3.20;;;;;;;;;;5033130;28;20057;-66
2024/03/27 05:02:03;;;;;;;8.43;5.10;;;;;;;;;;5033132;28;20033;-66
2024/03/27 05:04:29;;;;;;;11.40;4.35;;;;;;;;;;5032541;28;20132;-64
2024/03/27 05:06:55;;;;;;;6.15;3.80;;;;;;;;;;5029769;28;20064;-66
2024/03/27 05:09:21;;;;;;;11.40;4.50;;;;;;;;;;5029955;28;20046;-64
2024/03/27 05:11:47;;;;;;;7.18;4.60;;;;;;;;;;5030577;28;20339;-65
2024/03/27 05:14:12;;;;;;;8.07;4.60;;;;;;;;;;5030785;28;20041;-63
2024/03/27 05:16:38;;;;;;;10.63;4.75;;;;;;;;;;5031122;28;20075;-67
2024/03/27 05:19:04;;;;;;;6.07;3.40;;;;;;;;;;5031406;28;20042;-64
2024/03/27 05:21:29;;;;;;;9.05;4.38;;;;;;;;;;5030978;28;20099;-63
2024/03/27 05:23:55;;;;;;;7.70;3.60;;;;;;;;;;5030846;28;20041;-61
2024/03/27 05:26:20;;;;;;;9.50;4.88;;;;;;;;;;5031770;28;20037;-66
2024/03/27 05:28:46;;;;;;;9.85;4.35;;;;;;;;;;5031367;28;20041;-64
2024/03/27 05:31:11;;;;;;;9.27;4.60;;;;;;;;;;5029493;28;20044;-64
2024/03/27 05:33:37;;;;;;;7.85;4.05;;;;;;;;;;5012505;28;20091;-62
2024/03/27 05:36:03;;;;;;;8.68;4.10;;;;;;;;;;5030092;28;20033;-63
2024/03/27 05:38:28;;;;;;;9.25;4.43;;;;;;;;;;5032743;28;20033;-62
2024/03/27 05:40:54;;;;;;;6.57;3.65;;;;;;;;;;5032350;28;20645;-63
2024/03/27 05:43:19;;;;;;;12.85;4.60;;;;;;;;;;5031165;28;20561;-63
2024/03/27 05:45:45;;;;;;;9.80;4.03;;;;;;;;;;5032419;28;20053;-64
2024/03/27 05:48:11;;;;;;;7.75;3.80;;;;;;;;;;5032264;28;20488;-63
2024/03/27 05:50:36;;;;;;;8.07;4.20;;;;;;;;;;5032330;28;20091;-62
2024/03/27 05:53:03;;;;;;;9.75;4.03;;;;;;;;;;5030878;28;20037;-63
2024/03/27 05:55:28;;;;;;;6.68;3.78;;;;;;;;;;5030862;28;20095;-62
2024/03/27 05:57:54;;;;;;;7.00;4.07;;;;;;;;;;5031474;28;20484;-65
2024/03/27 06:00:20;;;;;;;8.82;4.57;;;;;;;;;;5031836;28;20057;-61
2024/03/27 06:02:45;;;;;;;9.80;3.88;;;;;;;;;;5031810;28;20033;-64
2024/03/27 06:05:11;;;;;;;9.98;4.18;;;;;;;;;;5013865;28;20579;-64
2024/03/27 06:07:36;;;;;;;7.57;3.90;;;;;;;;;;5031222;28;20411;-64
2024/03/27 06:10:02;;;;;;;9.93;4.25;;;;;;;;;;5031586;28;20044;-62
2024/03/27 06:12:30;;;;;;;7.55;4.00;;;;;;;;;;5031563;28;20029;-62
2024/03/27 06:14:56;;;;;;;8.93;3.97;;;;;;;;;;5030279;28;20502;-61
2024/03/27 06:17:21;;;;;;;5.38;2.70;;;;;;;;;;5030086;28;20037;-63
2024/03/27 06:19:47;;;;;;;9.63;3.40;;;;;;;;;;5030261;28;20384;-64
2024/03/27 06:22:12;;;;;;;6.32;3.03;;;;;;;;;;5031609;28;20033;-64
2024/03/27 06:24:38;;;;;;;7.22;2.90;;;;;;;;;;5031616;28;20037;-65
2024/03/27 06:27:03;;;;;;;8.00;3.35;;;;;;;;;;5031646;28;20090;-64
2024/03/27 06:29:29;;;;;;;7.70;2.95;;;;;;;;;;5013641;28;20033;-64
2024/03/27 06:31:55;;;;;;;4.10;2.78;;;;;;;;;;5031248;28;20144;-62
2024/03/27 06:34:20;;;;;;;4.75;2.40;;;;;;;;;;5031036;28;20049;-64
2024/03/27 06:36:46;;;;;;;3.63;2.47;;;;;;;;;;5031566;28;20107;-65
2024/03/27 06:39:12;;;;;;;8.32;2.72;;;;;;;;;;5029762;28;20037;-63
2024/03/27 06:41:39;;;;;;;4.65;2.25;;;;;;;;;;5031388;28;20157;-65
2024/03/27 06:44:05;;;;;;;4.45;2.38;;;;;;;;;;5031602;28;20037;-64
2024/03/27 06:46:36;;;;;;;3.65;2.25;;;;;;;;;;5030046;28;20044;-65
2024/03/27 06:49:17;;;;;;;4.38;2.05;;;;;;;;;;5029638;28;20034;-64
2024/03/27 06:51:48;;;;;;;6.22;2.40;;;;;;;;;;5030093;28;20037;-63
2024/03/27 06:54:13;;;;;;;3.58;2.20;;;;;;;;;;5030696;28;20052;-63
2024/03/27 06:56:39;;;;;;;4.30;2.40;;;;;;;;;;5031149;28;20112;-63
2024/03/27 06:59:04;;;;;;;5.10;2.42;;;;;;;;;;5030718;28;20057;-62
2024/03/27 07:01:30;;;;;;;3.83;2.15;;;;;;;;;;5029362;28;20034;-64
2024/03/27 07:03:56;;;;;;;2.10;1.80;;;;;;;;;;5029013;28;20029;-67
2024/03/27 07:06:21;;;;;;;5.50;1.80;;;;;;;;;;5031012;28;20121;-65
2024/03/27 07:08:48;;;;;;;3.65;1.85;;;;;;;;;;5029555;28;20033;-64
2024/03/27 07:11:14;;;;;;;3.20;1.63;;;;;;;;;;5030419;28;20482;-65
2024/03/27 07:13:39;;;;;;;4.68;2.08;;;;;;;;;;5030346;28;20041;-63
2024/03/27 07:16:05;;;;;;;5.72;2.08;;;;;;;;;;5030534;28;20029;-65
2024/03/27 07:18:31;;;;;;;4.38;2.40;;;;;;;;;;5032955;28;20037;-63
2024/03/27 07:20:58;;;;;;;6.00;1.88;;;;;;;;;;5033342;28;20029;-64
2024/03/27 07:23:24;;;;;;;3.50;2.05;;;;;;;;;;5033403;28;20124;-65
2024/03/27 07:25:50;;;;;;;3.10;1.90;;;;;;;;;;5035083;28;20125;-65
2024/03/27 07:28:15;;;;;;;5.60;2.10;;;;;;;;;;5034812;28;20116;-65
2024/03/27 07:30:41;;;;;;;4.47;2.10;;;;;;;;;;5033763;28;20032;-63
2024/03/27 07:33:07;;;;;;;3.25;1.98;;;;;;;;;;5034359;28;20140;-65
2024/03/27 07:35:32;;;;;;;4.10;1.85;;;;;;;;;;5035030;28;20052;-65
2024/03/27 07:37:58;;;;;;;3.50;1.92;;;;;;;;;;5034493;28;20056;-65
2024/03/27 07:40:26;;;;;;;2.70;1.80;;;;;;;;;;5034839;28;20515;-64
2024/03/27 07:42:52;;;;;;;4.47;2.25;;;;;;;;;;5016641;28;20040;-66
2024/03/27 07:45:18;;;;;;;2.40;1.80;;;;;;;;;;5034837;28;20045;-65
2024/03/27 07:47:44;;;;;;;5.28;1.98;;;;;;;;;;5034531;28;20029;-64
2024/03/27 07:50:09;;;;;;;4.72;2.25;;;;;;;;;;5033361;28;20044;-64
2024/03/27 07:52:35;;;;;;;5.90;1.60;;;;;;;;;;5034092;28;20041;-65
2024/03/27 07:55:01;;;;;;;4.07;1.65;;;;;;;;;;5034744;28;20057;-64
2024/03/27 07:57:29;;;;;;;3.22;1.70;;;;;;;;;;5032812;28;20032;-66
2024/03/27 07:59:55;;;;;;;4.43;1.77;;;;;;;;;;5033057;28;20065;-63
2024/03/27 08:02:23;;;;;;;2.33;1.70;;;;;;;;;;5033777;28;20478;-65
2024/03/27 08:04:49;;;;;;;2.13;1.45;;;;;;;;;;5016648;28;20041;-63
2024/03/27 08:07:14;;;;;;;2.83;1.40;;;;;;;;;;5032473;28;20120;-66
2024/03/27 08:09:40;;;;;;;3.13;1.67;;;;;;;;;;5034474;28;20124;-64
2024/03/27 08:12:05;;;;;;;3.55;1.60;;;;;;;;;;5033973;28;20037;-66
2024/03/27 08:14:31;;;;;;;3.88;1.67;;;;;;;;;;5032467;28;20190;-63
2024/03/27 08:16:57;;;;;;;4.68;1.60;;;;;;;;;;5033746;28;20136;-65
2024/03/27 08:19:22;;;;;;;4.15;1.70;;;;;;;;;;5034321;28;20077;-64
2024/03/27 08:21:48;;;;;;;3.38;1.73;;;;;;;;;;5033791;28;20029;-64
2024/03/27 08:24:13;;;;;;;5.07;1.60;;;;;;;;;;5032456;28;20120;-65
2024/03/27 08:26:39;;;;;;;3.35;1.50;;;;;;;;;;5032088;28;20079;-66
2024/03/27 08:29:05;;;;;;;2.22;1.50;;;;;;;;;;5033897;28;20188;-63
2024/03/27 08:31:30;;;;;;;2.17;1.40;;;;;;;;;;5032288;28;20041;-62
2024/03/27 08:33:56;;;;;;;4.53;1.63;;;;;;;;;;5032042;28;20055;-63
2024/03/27 08:36:22;;;;;;;5.10;1.30;;;;;;;;;;5032659;28;20030;-64
2024/03/27 08:38:48;;;;;;;3.60;1.33;;;;;;;;;;5033483;28;20047;-64
2024/03/27 08:41:14;;;;;;;2.80;1.50;;;;;;;;;;5033998;28;20038;-63
2024/03/27 08:43:40;;;;;;;1.90;1.55;;;;;;;;;;5032697;28;20064;-64
2024/03/27 08:46:05;;;;;;;3.33;1.42;;;;;;;;;;5033419;28;20120;-65
2024/03/27 08:48:31;;;;;;;3.72;1.77;;;;;;;;;;5031960;28;20045;-64
2024/03/27 08:50:57;;;;;;;3.38;1.55;;;;;;;;;;5033463;28;20037;-65
2024/03/27 08:53:22;;;;;;;2.08;1.65;;;;;;;;;;5032935;28;20537;-66
2024/03/27 08:55:48;;;;;;;2.08;1.48;;;;;;;;;;5033518;28;20095;-64
2024/03/27 08:58:14;;;;;;;2.08;1.50;;;;;;;;;;5031680;28;20132;-64
2024/03/27 09:00:41;;;;;;;3.25;1.60;;;;;;;;;;5033158;28;20057;-64
2024/03/27 09:03:07;;;;;;;4.70;1.88;;;;;;;;;;5032830;28;20048;-65
2024/03/27 09:05:33;;;;;;;4.35;2.03;;;;;;;;;;5033677;28;20045;-68
2024/03/27 09:07:58;;;;;;;6.57;1.70;;;;;;;;;;5031290;28;20030;-66
2024/03/27 09:10:27;;;;;;;2.33;1.63;;;;;;;;;;5032820;28;20064;-63
2024/03/27 09:12:52;;;;;;;3.63;1.65;;;;;;;;;;5031657;28;20523;-63
2024/03/27 09:15:19;;;;;;;4.28;1.80;;;;;;;;;;5031393;28;20054;-62
2024/03/27 09:17:45;;;;;;;3.35;1.83;;;;;;;;;;5011548;28;20037;-61
2024/03/27 09:20:11;;;;;;;3.70;1.70;;;;;;;;;;5028588;28;20037;-64
2024/03/27 09:22:36;;;;;;;2.95;1.50;;;;;;;;;;5032625;28;20056;-65
2024/03/27 09:25:04;;;;;;;2.03;1.35;;;;;;;;;;5031316;28;20495;-62
2024/03/27 09:27:32;;;;;;;2.40;1.60;;;;;;;;;;5031299;28;20129;-65
2024/03/27 09:29:58;;;;;;;4.30;1.73;;;;;;;;;;5032486;28;20038;-65
2024/03/27 09:32:24;;;;;;;5.95;1.90;;;;;;;;;;5032690;28;20033;-64
2024/03/27 09:34:49;;;;;;;2.20;1.65;;;;;;;;;;5032640;28;20077;-65
2024/03/27 09:37:15;;;;;;;4.72;2.05;;;;;;;;;;5031484;28;20049;-65
2024/03/27 09:39:42;;;;;;;2.35;1.55;;;;;;;;;;5014509;28;20511;-63
2024/03/27 09:42:07;;;;;;;2.28;1.65;;;;;;;;;;5031759;28;20037;-64
2024/03/27 09:44:33;;;;;;;3.80;1.85;;;;;;;;;;5030764;28;20041;-64
2024/03/27 09:46:59;;;;;;;4.18;1.70;;;;;;;;;;5032186;28;20037;-65
2024/03/27 09:49:28;;;;;;;5.75;2.13;;;;;;;;;;5014391;28;20068;-63
2024/03/27 09:51:57;;;;;;;8.10;2.70;;;;;;;;;;5032236;28;20028;-65
2024/03/27 09:54:26;;;;;;;4.22;2.45;;;;;;;;;;5030692;28;20049;-62
2024/03/27 09:56:55;;;;;;;3.50;1.70;;;;;;;;;;5031954;28;20553;-62
2024/03/27 09:59:22;;;;;;;2.05;1.38;;;;;;;;;;5030666;28;20053;-63
2024/03/27 10:01:58;;;;;;;4.75;2.30;;;;;;;;;;5031741;28;20029;-64
2024/03/27 10:04:24;;;;;;;4.40;1.77;;;;;;;;;;5032179;28;20111;-64
2024/03/27 10:06:50;;;;;;;2.88;1.55;;;;;;;;;;5031838;28;20458;-66
2024/03/27 10:09:15;;;;;;;4.28;1.75;;;;;;;;;;5014524;28;20052;-64
2024/03/27 10:11:42;;;;;;;2.13;1.73;;;;;;;;;;5031494;28;20119;-65
2024/03/27 10:14:07;;;;;;;3.55;1.63;;;;;;;;;;5030453;28;20045;-63
2024/03/27 10:16:35;;;;;;;3.30;1.50;;;;;;;;;;5030367;28;20125;-63
2024/03/27 10:19:03;;;;;;;4.72;1.80;;;;;;;;;;4998167;28;20038;-62
2024/03/27 10:21:29;;;;;;;2.35;1.42;;;;;;;;;;5031633;28;20056;-64
2024/03/27 10:23:55;;;;;;;1.50;1.40;;;;;;;;;;5031933;28;20049;-63
2024/03/27 11:54:26;;;;;;;1.55;1.30;;;;;;;;;;5030483;28;20312;-62
2024/03/27 11:56:52;;;;;;;2.85;1.50;;;;;;;;;;5030859;28;20344;-60
2024/03/27 11:59:17;;;;;;;1.52;1.33;;;;;;;;;;5030698;28;20025;-62
2024/03/27 12:01:43;;;;;;;2.53;1.52;;;;;;;;;;5012954;28;20026;-63
2024/03/27 12:04:09;;;;;;;1.83;1.30;;;;;;;;;;5030589;28;20030;-63
2024/03/27 12:06:35;;;;;;;1.80;1.50;;;;;;;;;;5033464;28;20087;-62
2024/03/27 12:09:03;;;;;;;3.97;1.52;;;;;;;;;;5034151;28;20506;-64
2024/03/27 12:11:29;;;;;;;4.22;1.58;;;;;;;;;;5033072;28;20037;-63
2024/03/27 12:13:55;;;;;;;3.03;1.58;;;;;;;;;;5007490;28;20148;-63
2024/03/27 12:16:21;;;;;;;2.67;1.30;;;;;;;;;;5034090;28;20571;-66
2024/03/27 12:18:46;;;;;;;3.13;1.50;;;;;;;;;;5027162;28;20036;-64
2024/03/27 12:21:13;;;;;;;5.65;1.73;;;;;;;;;;5033493;28;20041;-65
2024/03/27 12:23:39;;;;;;;4.78;1.42;;;;;;;;;;5033674;28;20128;-60
2024/03/27 12:26:10;;;;;;;2.72;1.30;;;;;;;;;;5029528;28;20033;-62
2024/03/27 12:28:37;;;;;;;1.48;1.30;;;;;;;;;;5032274;28;20061;-62
2024/03/27 12:31:04;;;;;;;1.60;1.40;;;;;;;;;;5029522;28;20048;-63
2024/03/27 12:33:32;;;;;;;4.32;1.65;;;;;;;;;;5032179;28;20454;-62
2024/03/27 12:35:58;;;;;;;1.77;1.30;;;;;;;;;;5022505;28;20072;-61
2024/03/27 12:38:23;;;;;;;4.22;1.60;;;;;;;;;;5016453;28;20034;-62
2024/03/27 12:40:49;;;;;;;2.53;1.40;;;;;;;;;;5021980;28;20041;-63
2024/03/27 12:43:14;;;;;;;2.78;1.40;;;;;;;;;;5033583;28;20410;-62
2024/03/27 12:45:40;;;;;;;3.50;1.55;;;;;;;;;;5033639;28;20045;-61
2024/03/27 12:48:06;;;;;;;2.45;1.63;;;;;;;;;;5033797;28;20075;-63
2024/03/27 12:50:32;;;;;;;3.58;1.80;;;;;;;;;;5032284;28;20076;-65
2024/03/27 12:52:57;;;;;;;3.42;1.70;;;;;;;;;;5015292;28;20431;-67
2024/03/27 12:55:23;;;;;;;5.90;1.92;;;;;;;;;;5033215;28;20045;-62
2024/03/27 12:57:49;;;;;;;3.38;1.63;;;;;;;;;;5055572;28;20116;-62
2024/03/27 13:00:18;;;;;;;4.78;1.70;;;;;;;;;;5022714;28;20153;-60
2024/03/27 13:02:44;;;;;;;3.47;1.52;;;;;;;;;;5032474;28;20022;-61
2024/03/27 13:05:10;;;;;;;3.05;1.35;;;;;;;;;;5021403;28;20041;-58
2024/03/27 13:07:36;;;;;;;4.03;1.40;;;;;;;;;;5029822;28;20099;-61
2024/03/27 13:10:01;;;;;;;3.67;1.50;;;;;;;;;;4998121;28;20476;-62
2024/03/27 13:12:29;;;;;;;2.47;1.52;;;;;;;;;;5031553;28;20296;-62
2024/03/27 13:14:55;;;;;;;2.63;1.50;;;;;;;;;;5023946;28;20084;-62
2024/03/27 13:17:21;;;;;;;7.60;1.60;;;;;;;;;;5031550;28;20037;-63
2024/03/27 13:19:47;;;;;;;3.88;1.73;;;;;;;;;;5014673;28;20042;-65
2024/03/27 13:22:13;;;;;;;2.55;1.60;;;;;;;;;;5031125;28;20542;-66
2024/03/27 13:24:39;;;;;;;4.68;1.80;;;;;;;;;;5031161;28;20038;-63
2024/03/27 13:27:04;;;;;;;5.07;1.45;;;;;;;;;;5032546;28;20017;-63
2024/03/27 13:29:30;;;;;;;2.63;1.38;;;;;;;;;;5031587;28;20068;-62
2024/03/27 13:31:55;;;;;;;3.63;1.40;;;;;;;;;;5031688;28;20083;-65
2024/03/27 13:34:22;;;;;;;5.57;1.52;;;;;;;;;;5032595;28;20132;-61
2024/03/27 13:36:47;;;;;;;1.95;1.60;;;;;;;;;;5031058;28;20025;-64
2024/03/27 13:39:13;;;;;;;3.42;1.20;;;;;;;;;;5015182;28;20144;-64
2024/03/27 13:41:38;;;;;;;2.67;1.40;;;;;;;;;;5032421;28;20483;-64
2024/03/27 13:44:04;;;;;;;4.65;1.40;;;;;;;;;;5032300;28;20090;-63
2024/03/27 13:46:29;;;;;;;1.92;1.27;;;;;;;;;;5031102;28;20091;-66
2024/03/27 13:48:55;;;;;;;3.40;1.50;;;;;;;;;;5031949;28;20281;-63
2024/03/27 13:51:21;;;;;;;3.17;1.45;;;;;;;;;;5031685;28;20509;-67
2024/03/27 13:53:47;;;;;;;2.85;1.70;;;;;;;;;;5030674;28;20061;-64
2024/03/27 13:56:13;;;;;;;2.88;1.50;;;;;;;;;;5021752;28;20179;-64
2024/03/27 13:58:38;;;;;;;2.53;1.42;;;;;;;;;;5029856;28;20095;-64
2024/03/27 14:01:04;;;;;;;2.50;1.50;;;;;;;;;;5032249;28;20037;-63
2024/03/27 14:03:29;;;;;;;3.10;1.48;;;;;;;;;;5030448;28;20025;-63
2024/03/27 14:05:55;;;;;;;4.78;1.50;;;;;;;;;;5029400;28;20033;-63
2024/03/27 14:08:21;;;;;;;2.45;1.50;;;;;;;;;;5030440;28;20084;-63
2024/03/27 14:10:46;;;;;;;2.30;1.20;;;;;;;;;;5003694;28;20449;-62
2024/03/27 14:13:12;;;;;;;2.17;1.50;;;;;;;;;;5058419;28;20399;-62
2024/03/27 14:15:37;;;;;;;2.92;1.15;;;;;;;;;;5021441;28;20726;-61
2024/03/27 14:18:03;;;;;;;2.65;1.50;;;;;;;;;;5020434;28;20037;-61
2024/03/27 14:20:29;;;;;;;2.63;1.50;;;;;;;;;;5030297;28;20507;-67
2024/03/27 14:22:54;;;;;;;2.63;1.35;;;;;;;;;;5051980;28;20487;-62
2024/03/27 14:25:20;;;;;;;3.95;1.70;;;;;;;;;;5029860;28;20065;-62
2024/03/27 14:27:46;;;;;;;4.13;1.50;;;;;;;;;;5020433;28;20045;-64
2024/03/27 14:30:14;;;;;;;2.70;1.65;;;;;;;;;;5030541;28;20064;-64
2024/03/27 14:32:40;;;;;;;5.10;1.95;;;;;;;;;;5031803;28;20040;-64
2024/03/27 14:35:06;;;;;;;2.03;1.50;;;;;;;;;;5031059;28;20053;-63
2024/03/27 14:37:31;;;;;;;3.15;1.60;;;;;;;;;;5029731;28;20048;-65
2024/03/27 14:39:57;;;;;;;3.65;1.27;;;;;;;;;;5028480;28;20034;-63
2024/03/27 14:42:23;;;;;;;2.10;1.45;;;;;;;;;;5031210;28;20570;-63
2024/03/27 14:44:50;;;;;;;2.63;1.50;;;;;;;;;;5027804;28;20041;-64
2024/03/27 14:47:15;;;;;;;2.17;1.35;;;;;;;;;;5031051;28;20578;-63
2024/03/27 14:49:41;;;;;;;3.63;1.90;;;;;;;;;;5024664;28;20124;-63
2024/03/27 14:52:06;;;;;;;3.17;1.40;;;;;;;;;;5030725;28;20140;-63
2024/03/27 14:54:32;;;;;;;2.75;1.58;;;;;;;;;;5030993;28;20049;-63
2024/03/27 14:56:58;;;;;;;2.25;1.23;;;;;;;;;;5029565;28;20029;-63
2024/03/27 14:59:23;;;;;;;1.52;1.38;;;;;;;;;;5030711;28;20100;-64
2024/03/27 15:01:50;;;;;;;3.75;1.45;;;;;;;;;;5013074;28;20030;-63
2024/03/27 15:04:16;;;;;;;2.10;1.60;;;;;;;;;;5012633;28;20048;-65
2024/03/27 15:06:42;;;;;;;1.92;1.38;;;;;;;;;;5026445;28;20037;-65
2024/03/27 15:09:08;;;;;;;2.03;1.30;;;;;;;;;;5031010;28;20034;-64
2024/03/27 15:11:34;;;;;;;5.95;1.83;;;;;;;;;;5030444;28;20120;-66
2024/03/27 15:14:01;;;;;;;3.03;1.50;;;;;;;;;;5030577;28;20049;-63
2024/03/27 15:16:27;;;;;;;2.92;1.60;;;;;;;;;;4996805;28;20562;-64
2024/03/27 15:18:54;;;;;;;3.35;2.10;;;;;;;;;;4996139;28;20044;-64
2024/03/27 15:21:20;;;;;;;1.20;1.10;;;;;;;;;;5012607;28;20033;-65
2024/03/27 15:23:45;;;;;;;1.33;1.20;;;;;;;;;;5030827;28;20053;-63
2024/03/27 15:26:11;;;;;;;3.72;1.40;;;;;;;;;;5030370;28;20522;-63
2024/03/27 15:28:37;;;;;;;2.83;1.58;;;;;;;;;;5030734;28;20487;-61
2024/03/27 15:31:02;;;;;;;4.45;1.80;;;;;;;;;;5029366;28;20041;-63
2024/03/27 15:33:28;;;;;;;3.40;1.50;;;;;;;;;;5030396;28;20053;-63
2024/03/27 15:35:53;;;;;;;3.97;1.50;;;;;;;;;;5030575;28;20041;-63
2024/03/27 15:38:19;;;;;;;2.60;1.40;;;;;;;;;;5030952;28;20380;-62
2024/03/27 15:40:55;;;;;;;3.75;1.70;;;;;;;;;;5034314;28;20029;-64
2024/03/27 15:43:21;;;;;;;1.70;1.27;;;;;;;;;;5034759;28;20502;-62
2024/03/27 15:45:48;;;;;;;2.90;1.50;;;;;;;;;;5033098;28;20078;-64
2024/03/27 15:48:14;;;;;;;2.90;1.40;;;;;;;;;;5034245;28;20029;-63
2024/03/27 15:50:42;;;;;;;3.50;2.28;;;;;;;;;;5034262;28;20033;-62
2024/03/27 15:53:08;;;;;;;2.92;1.50;;;;;;;;;;5033829;28;20060;-62
2024/03/27 15:55:34;;;;;;;2.08;1.20;;;;;;;;;;5033066;28;20045;-62
2024/03/27 15:58:00;;;;;;;2.78;1.30;;;;;;;;;;5032695;28;20052;-64
2024/03/27 16:00:25;;;;;;;3.67;1.55;;;;;;;;;;5034518;28;20068;-64
2024/03/27 16:02:51;;;;;;;3.85;1.92;;;;;;;;;;5031605;28;20068;-64